sensor_id;sensor_type;location;lat;lon;timestamp;P1;durP1;ratioP1;P2;durP2;ratioP2
56746;SDS011;42623;49.978;9.966;2022-09-02T00:00:08;4.70;;;2.30;;
56746;SDS011;42623;49.978;9.966;2022-09-02T00:00:19;4.55;;;2.17;;
56746;SDS011;42623;49.978;9.966;2022-09-02T00:00:30;5.13;;;2.23;;
56746;SDS011;42623;49.978;9.966;2022-09-02T00:00:41;5.22;;;2.05;;
56746;SDS011;42623;49.978;9.966;2022-09-02T00:00:54;5.20;;;2.03;;
56746;SDS011;42623;49.978;9.966;2022-09-02T00:01:26;3.60;;;1.85;;
56746;SDS011;42623;49.978;9.966;2022-09-02T00:01:41;3.95;;;1.85;;
56746;SDS011;42623;49.978;9.966;2022-09-02T00:01:51;4.20;;;1.88;;
56746;SDS011;42623;49.978;9.966;2022-09-02T00:02:01;4.57;;;2.00;;
56746;SDS011;42623;49.978;9.966;2022-09-02T00:02:11;3.87;;;1.90;;
56746;SDS011;42623;49.978;9.966;2022-09-02T00:02:22;3.53;;;1.80;;
56746;SDS011;42623;49.978;9.966;2022-09-02T00:02:32;3.40;;;1.80;;
56746;SDS011;42623;49.978;9.966;2022-09-02T00:02:43;4.10;;;1.90;;
56746;SDS011;42623;49.978;9.966;2022-09-02T00:02:53;4.77;;;2.10;;
56746;SDS011;42623;49.978;9.966;2022-09-02T00:03:03;4.87;;;2.20;;
56746;SDS011;42623;49.978;9.966;2022-09-02T00:03:13;4.73;;;2.23;;
56746;SDS011;42623;49.978;9.966;2022-09-02T00:03:24;4.40;;;2.05;;
56746;SDS011;42623;49.978;9.966;2022-09-02T00:03:34;4.37;;;2.20;;
56746;SDS011;42623;49.978;9.966;2022-09-02T00:03:45;4.50;;;2.22;;
56746;SDS011;42623;49.978;9.966;2022-09-02T00:03:57;4.15;;;2.22;;
56746;SDS011;42623;49.978;9.966;2022-09-02T00:04:12;3.95;;;2.03;;
56746;SDS011;42623;49.978;9.966;2022-09-02T00:04:24;4.55;;;2.22;;
56746;SDS011;42623;49.978;9.966;2022-09-02T00:04:34;4.35;;;2.22;;
56746;SDS011;42623;49.978;9.966;2022-09-02T00:04:44;4.37;;;2.27;;
56746;SDS011;42623;49.978;9.966;2022-09-02T00:04:55;4.27;;;2.17;;
56746;SDS011;42623;49.978;9.966;2022-09-02T00:05:05;4.27;;;2.23;;
56746;SDS011;42623;49.978;9.966;2022-09-02T00:05:16;4.13;;;2.15;;
56746;SDS011;42623;49.978;9.966;2022-09-02T00:05:26;3.97;;;2.13;;
56746;SDS011;42623;49.978;9.966;2022-09-02T00:05:37;4.13;;;2.13;;
56746;SDS011;42623;49.978;9.966;2022-09-02T00:05:47;4.15;;;2.13;;
56746;SDS011;42623;49.978;9.966;2022-09-02T00:05:57;4.57;;;2.20;;
56746;SDS011;42623;49.978;9.966;2022-09-02T00:06:08;4.27;;;2.10;;
56746;SDS011;42623;49.978;9.966;2022-09-02T00:06:18;4.18;;;2.03;;
56746;SDS011;42623;49.978;9.966;2022-09-02T00:06:28;4.07;;;2.00;;
56746;SDS011;42623;49.978;9.966;2022-09-02T00:06:40;4.28;;;2.10;;
56746;SDS011;42623;49.978;9.966;2022-09-02T00:06:51;4.67;;;2.20;;
56746;SDS011;42623;49.978;9.966;2022-09-02T00:07:02;4.28;;;2.25;;
56746;SDS011;42623;49.978;9.966;2022-09-02T00:07:13;4.07;;;2.25;;
56746;SDS011;42623;49.978;9.966;2022-09-02T00:07:23;4.17;;;2.47;;
56746;SDS011;42623;49.978;9.966;2022-09-02T00:07:33;4.70;;;2.40;;
56746;SDS011;42623;49.978;9.966;2022-09-02T00:07:43;4.20;;;2.23;;
56746;SDS011;42623;49.978;9.966;2022-09-02T00:07:53;3.85;;;1.90;;
56746;SDS011;42623;49.978;9.966;2022-09-02T00:08:04;3.83;;;1.90;;
56746;SDS011;42623;49.978;9.966;2022-09-02T00:08:14;4.20;;;1.87;;
56746;SDS011;42623;49.978;9.966;2022-09-02T00:08:24;4.85;;;2.08;;
56746;SDS011;42623;49.978;9.966;2022-09-02T00:08:34;4.77;;;2.10;;
56746;SDS011;42623;49.978;9.966;2022-09-02T00:08:45;5.60;;;2.33;;
56746;SDS011;42623;49.978;9.966;2022-09-02T00:08:55;5.93;;;2.53;;
56746;SDS011;42623;49.978;9.966;2022-09-02T00:09:06;5.65;;;2.47;;
56746;SDS011;42623;49.978;9.966;2022-09-02T00:09:18;4.55;;;2.30;;
56746;SDS011;42623;49.978;9.966;2022-09-02T00:09:28;3.74;;;1.94;;
56746;SDS011;42623;49.978;9.966;2022-09-02T00:09:38;4.47;;;2.10;;
56746;SDS011;42623;49.978;9.966;2022-09-02T00:09:49;4.43;;;2.08;;
56746;SDS011;42623;49.978;9.966;2022-09-02T00:09:59;4.17;;;1.97;;
56746;SDS011;42623;49.978;9.966;2022-09-02T00:10:09;3.70;;;1.90;;
56746;SDS011;42623;49.978;9.966;2022-09-02T00:10:20;3.87;;;1.90;;
56746;SDS011;42623;49.978;9.966;2022-09-02T00:10:30;3.97;;;2.00;;
56746;SDS011;42623;49.978;9.966;2022-09-02T00:10:42;3.40;;;1.88;;
56746;SDS011;42623;49.978;9.966;2022-09-02T00:10:52;3.10;;;1.80;;
56746;SDS011;42623;49.978;9.966;2022-09-02T00:11:03;2.93;;;1.80;;
56746;SDS011;42623;49.978;9.966;2022-09-02T00:11:16;4.03;;;2.00;;
56746;SDS011;42623;49.978;9.966;2022-09-02T00:11:27;5.28;;;2.33;;
56746;SDS011;42623;49.978;9.966;2022-09-02T00:11:38;4.53;;;2.08;;
56746;SDS011;42623;49.978;9.966;2022-09-02T00:11:49;4.05;;;1.90;;
56746;SDS011;42623;49.978;9.966;2022-09-02T00:12:00;3.30;;;1.67;;
56746;SDS011;42623;49.978;9.966;2022-09-02T00:12:11;3.67;;;1.80;;
56746;SDS011;42623;49.978;9.966;2022-09-02T00:12:21;3.03;;;1.67;;
56746;SDS011;42623;49.978;9.966;2022-09-02T00:12:32;3.57;;;1.80;;
56746;SDS011;42623;49.978;9.966;2022-09-02T00:12:42;3.50;;;1.80;;
56746;SDS011;42623;49.978;9.966;2022-09-02T00:12:52;4.37;;;2.17;;
56746;SDS011;42623;49.978;9.966;2022-09-02T00:13:02;4.03;;;2.22;;
56746;SDS011;42623;49.978;9.966;2022-09-02T00:13:14;4.47;;;2.30;;
56746;SDS011;42623;49.978;9.966;2022-09-02T00:13:25;4.60;;;2.25;;
56746;SDS011;42623;49.978;9.966;2022-09-02T00:13:36;4.95;;;2.20;;
56746;SDS011;42623;49.978;9.966;2022-09-02T00:13:47;4.65;;;2.13;;
56746;SDS011;42623;49.978;9.966;2022-09-02T00:13:57;4.13;;;2.00;;
56746;SDS011;42623;49.978;9.966;2022-09-02T00:14:09;4.83;;;2.30;;
56746;SDS011;42623;49.978;9.966;2022-09-02T00:14:31;3.95;;;1.95;;
56746;SDS011;42623;49.978;9.966;2022-09-02T00:14:41;2.95;;;1.50;;
56746;SDS011;42623;49.978;9.966;2022-09-02T00:14:51;3.37;;;1.60;;
56746;SDS011;42623;49.978;9.966;2022-09-02T00:15:02;3.47;;;1.63;;
56746;SDS011;42623;49.978;9.966;2022-09-02T00:15:12;3.30;;;1.67;;
56746;SDS011;42623;49.978;9.966;2022-09-02T00:15:22;3.53;;;1.87;;
56746;SDS011;42623;49.978;9.966;2022-09-02T00:15:33;4.22;;;2.30;;
56746;SDS011;42623;49.978;9.966;2022-09-02T00:15:43;4.73;;;2.40;;
56746;SDS011;42623;49.978;9.966;2022-09-02T00:15:53;4.50;;;2.23;;
56746;SDS011;42623;49.978;9.966;2022-09-02T00:16:04;4.38;;;1.95;;
56746;SDS011;42623;49.978;9.966;2022-09-02T00:16:15;4.45;;;1.98;;
56746;SDS011;42623;49.978;9.966;2022-09-02T00:16:26;4.78;;;1.95;;
56746;SDS011;42623;49.978;9.966;2022-09-02T00:16:36;4.63;;;1.90;;
56746;SDS011;42623;49.978;9.966;2022-09-02T00:16:47;4.85;;;1.98;;
56746;SDS011;42623;49.978;9.966;2022-09-02T00:17:00;4.63;;;2.05;;
56746;SDS011;42623;49.978;9.966;2022-09-02T00:17:11;4.87;;;2.17;;
56746;SDS011;42623;49.978;9.966;2022-09-02T00:17:21;4.80;;;2.13;;
56746;SDS011;42623;49.978;9.966;2022-09-02T00:17:31;4.40;;;1.90;;
56746;SDS011;42623;49.978;9.966;2022-09-02T00:17:41;4.33;;;1.87;;
56746;SDS011;42623;49.978;9.966;2022-09-02T00:17:52;3.93;;;1.80;;
56746;SDS011;42623;49.978;9.966;2022-09-02T00:18:03;3.78;;;1.80;;
56746;SDS011;42623;49.978;9.966;2022-09-02T00:18:14;3.45;;;1.77;;
56746;SDS011;42623;49.978;9.966;2022-09-02T00:18:25;3.35;;;1.75;;
56746;SDS011;42623;49.978;9.966;2022-09-02T00:18:36;3.58;;;1.92;;
56746;SDS011;42623;49.978;9.966;2022-09-02T00:18:46;4.00;;;2.03;;
56746;SDS011;42623;49.978;9.966;2022-09-02T00:18:58;4.28;;;2.13;;
56746;SDS011;42623;49.978;9.966;2022-09-02T00:19:09;4.22;;;2.05;;
56746;SDS011;42623;49.978;9.966;2022-09-02T00:19:21;4.45;;;2.10;;
56746;SDS011;42623;49.978;9.966;2022-09-02T00:19:32;4.72;;;2.13;;
56746;SDS011;42623;49.978;9.966;2022-09-02T00:19:42;5.80;;;2.15;;
56746;SDS011;42623;49.978;9.966;2022-09-02T00:19:52;5.53;;;2.25;;
56746;SDS011;42623;49.978;9.966;2022-09-02T00:20:03;4.63;;;2.17;;
56746;SDS011;42623;49.978;9.966;2022-09-02T00:20:13;3.95;;;2.00;;
56746;SDS011;42623;49.978;9.966;2022-09-02T00:20:23;3.77;;;1.80;;
56746;SDS011;42623;49.978;9.966;2022-09-02T00:20:34;4.27;;;1.90;;
56746;SDS011;42623;49.978;9.966;2022-09-02T00:20:45;4.10;;;1.90;;
56746;SDS011;42623;49.978;9.966;2022-09-02T00:20:56;4.30;;;1.95;;
56746;SDS011;42623;49.978;9.966;2022-09-02T00:21:06;3.92;;;1.80;;
56746;SDS011;42623;49.978;9.966;2022-09-02T00:21:17;3.73;;;1.83;;
56746;SDS011;42623;49.978;9.966;2022-09-02T00:21:28;3.10;;;1.63;;
56746;SDS011;42623;49.978;9.966;2022-09-02T00:21:38;3.43;;;1.70;;
56746;SDS011;42623;49.978;9.966;2022-09-02T00:21:48;3.95;;;1.90;;
56746;SDS011;42623;49.978;9.966;2022-09-02T00:21:59;4.10;;;2.00;;
56746;SDS011;42623;49.978;9.966;2022-09-02T00:22:10;3.25;;;1.80;;
56746;SDS011;42623;49.978;9.966;2022-09-02T00:22:20;3.30;;;1.83;;
56746;SDS011;42623;49.978;9.966;2022-09-02T00:22:32;3.72;;;1.95;;
56746;SDS011;42623;49.978;9.966;2022-09-02T00:22:42;4.33;;;2.03;;
56746;SDS011;42623;49.978;9.966;2022-09-02T00:22:52;3.90;;;1.90;;
56746;SDS011;42623;49.978;9.966;2022-09-02T00:23:02;3.37;;;1.70;;
56746;SDS011;42623;49.978;9.966;2022-09-02T00:23:13;3.30;;;1.70;;
56746;SDS011;42623;49.978;9.966;2022-09-02T00:23:24;3.80;;;1.90;;
56746;SDS011;42623;49.978;9.966;2022-09-02T00:23:34;3.90;;;2.00;;
56746;SDS011;42623;49.978;9.966;2022-09-02T00:23:45;3.35;;;1.80;;
56746;SDS011;42623;49.978;9.966;2022-09-02T00:23:56;2.75;;;1.63;;
56746;SDS011;42623;49.978;9.966;2022-09-02T00:24:06;3.23;;;1.83;;
56746;SDS011;42623;49.978;9.966;2022-09-02T00:24:16;4.13;;;2.00;;
56746;SDS011;42623;49.978;9.966;2022-09-02T00:24:26;4.77;;;2.30;;
56746;SDS011;42623;49.978;9.966;2022-09-02T00:24:37;4.67;;;2.17;;
56746;SDS011;42623;49.978;9.966;2022-09-02T00:24:47;4.63;;;2.20;;
56746;SDS011;42623;49.978;9.966;2022-09-02T00:24:57;4.22;;;1.92;;
56746;SDS011;42623;49.978;9.966;2022-09-02T00:25:07;3.97;;;1.80;;
56746;SDS011;42623;49.978;9.966;2022-09-02T00:25:18;3.95;;;1.80;;
56746;SDS011;42623;49.978;9.966;2022-09-02T00:25:28;4.30;;;2.00;;
56746;SDS011;42623;49.978;9.966;2022-09-02T00:25:39;4.67;;;2.20;;
56746;SDS011;42623;49.978;9.966;2022-09-02T00:25:49;4.60;;;2.20;;
56746;SDS011;42623;49.978;9.966;2022-09-02T00:25:59;4.70;;;2.20;;
56746;SDS011;42623;49.978;9.966;2022-09-02T00:26:10;4.60;;;2.10;;
56746;SDS011;42623;49.978;9.966;2022-09-02T00:26:21;4.68;;;2.10;;
56746;SDS011;42623;49.978;9.966;2022-09-02T00:26:31;4.10;;;2.00;;
56746;SDS011;42623;49.978;9.966;2022-09-02T00:26:42;4.25;;;2.00;;
56746;SDS011;42623;49.978;9.966;2022-09-02T00:26:53;4.15;;;1.90;;
56746;SDS011;42623;49.978;9.966;2022-09-02T00:27:03;4.37;;;1.97;;
56746;SDS011;42623;49.978;9.966;2022-09-02T00:27:13;3.63;;;1.90;;
56746;SDS011;42623;49.978;9.966;2022-09-02T00:27:23;3.63;;;1.97;;
56746;SDS011;42623;49.978;9.966;2022-09-02T00:27:34;3.70;;;2.00;;
56746;SDS011;42623;49.978;9.966;2022-09-02T00:27:44;3.50;;;1.90;;
56746;SDS011;42623;49.978;9.966;2022-09-02T00:27:54;3.57;;;1.70;;
56746;SDS011;42623;49.978;9.966;2022-09-02T00:28:05;3.38;;;1.70;;
56746;SDS011;42623;49.978;9.966;2022-09-02T00:28:15;3.83;;;1.87;;
56746;SDS011;42623;49.978;9.966;2022-09-02T00:28:25;3.97;;;2.00;;
56746;SDS011;42623;49.978;9.966;2022-09-02T00:28:35;4.83;;;1.93;;
56746;SDS011;42623;49.978;9.966;2022-09-02T00:28:46;4.43;;;1.70;;
56746;SDS011;42623;49.978;9.966;2022-09-02T00:28:56;4.72;;;1.77;;
56746;SDS011;42623;49.978;9.966;2022-09-02T00:29:07;4.37;;;1.87;;
56746;SDS011;42623;49.978;9.966;2022-09-02T00:29:17;4.40;;;2.00;;
56746;SDS011;42623;49.978;9.966;2022-09-02T00:29:27;4.65;;;2.03;;
56746;SDS011;42623;49.978;9.966;2022-09-02T00:29:37;4.00;;;2.00;;
56746;SDS011;42623;49.978;9.966;2022-09-02T00:29:48;4.22;;;2.00;;
56746;SDS011;42623;49.978;9.966;2022-09-02T00:29:58;4.27;;;2.07;;
56746;SDS011;42623;49.978;9.966;2022-09-02T00:30:09;5.27;;;2.23;;
56746;SDS011;42623;49.978;9.966;2022-09-02T00:30:19;5.07;;;2.20;;
56746;SDS011;42623;49.978;9.966;2022-09-02T00:30:29;4.00;;;1.87;;
56746;SDS011;42623;49.978;9.966;2022-09-02T00:30:40;3.90;;;1.88;;
56746;SDS011;42623;49.978;9.966;2022-09-02T00:30:50;3.57;;;1.87;;
56746;SDS011;42623;49.978;9.966;2022-09-02T00:31:01;3.92;;;1.92;;
56746;SDS011;42623;49.978;9.966;2022-09-02T00:31:12;3.53;;;1.80;;
56746;SDS011;42623;49.978;9.966;2022-09-02T00:31:23;3.67;;;1.80;;
56746;SDS011;42623;49.978;9.966;2022-09-02T00:31:33;3.65;;;1.92;;
56746;SDS011;42623;49.978;9.966;2022-09-02T00:31:45;5.35;;;2.03;;
56746;SDS011;42623;49.978;9.966;2022-09-02T00:31:56;6.13;;;2.30;;
56746;SDS011;42623;49.978;9.966;2022-09-02T00:32:06;5.43;;;2.10;;
56746;SDS011;42623;49.978;9.966;2022-09-02T00:32:16;4.23;;;2.00;;
56746;SDS011;42623;49.978;9.966;2022-09-02T00:32:26;4.07;;;1.98;;
56746;SDS011;42623;49.978;9.966;2022-09-02T00:32:36;4.13;;;1.90;;
56746;SDS011;42623;49.978;9.966;2022-09-02T00:32:46;4.50;;;1.97;;
56746;SDS011;42623;49.978;9.966;2022-09-02T00:32:57;4.27;;;1.90;;
56746;SDS011;42623;49.978;9.966;2022-09-02T00:33:07;3.93;;;1.90;;
56746;SDS011;42623;49.978;9.966;2022-09-02T00:33:18;3.58;;;1.80;;
56746;SDS011;42623;49.978;9.966;2022-09-02T00:33:28;3.45;;;1.70;;
56746;SDS011;42623;49.978;9.966;2022-09-02T00:33:40;4.75;;;2.10;;
56746;SDS011;42623;49.978;9.966;2022-09-02T00:33:50;4.73;;;2.20;;
56746;SDS011;42623;49.978;9.966;2022-09-02T00:34:01;4.00;;;2.20;;
56746;SDS011;42623;49.978;9.966;2022-09-02T00:34:11;3.42;;;1.92;;
56746;SDS011;42623;49.978;9.966;2022-09-02T00:34:22;4.00;;;2.10;;
56746;SDS011;42623;49.978;9.966;2022-09-02T00:34:32;3.67;;;1.90;;
56746;SDS011;42623;49.978;9.966;2022-09-02T00:34:42;4.93;;;1.97;;
56746;SDS011;42623;49.978;9.966;2022-09-02T00:34:52;4.75;;;1.80;;
56746;SDS011;42623;49.978;9.966;2022-09-02T00:35:05;5.38;;;1.98;;
56746;SDS011;42623;49.978;9.966;2022-09-02T00:35:15;4.23;;;1.90;;
56746;SDS011;42623;49.978;9.966;2022-09-02T00:35:25;4.07;;;1.90;;
56746;SDS011;42623;49.978;9.966;2022-09-02T00:35:36;4.00;;;1.80;;
56746;SDS011;42623;49.978;9.966;2022-09-02T00:35:47;3.90;;;1.87;;
56746;SDS011;42623;49.978;9.966;2022-09-02T00:35:58;4.07;;;1.70;;
56746;SDS011;42623;49.978;9.966;2022-09-02T00:36:09;4.45;;;1.80;;
56746;SDS011;42623;49.978;9.966;2022-09-02T00:36:19;4.87;;;1.80;;
56746;SDS011;42623;49.978;9.966;2022-09-02T00:36:29;4.07;;;1.95;;
56746;SDS011;42623;49.978;9.966;2022-09-02T00:36:39;4.13;;;2.07;;
56746;SDS011;42623;49.978;9.966;2022-09-02T00:36:50;3.53;;;1.80;;
56746;SDS011;42623;49.978;9.966;2022-09-02T00:37:00;3.97;;;1.87;;
56746;SDS011;42623;49.978;9.966;2022-09-02T00:37:10;3.70;;;1.80;;
56746;SDS011;42623;49.978;9.966;2022-09-02T00:37:22;3.92;;;2.13;;
56746;SDS011;42623;49.978;9.966;2022-09-02T00:37:33;3.47;;;2.00;;
56746;SDS011;42623;49.978;9.966;2022-09-02T00:37:43;3.63;;;1.93;;
56746;SDS011;42623;49.978;9.966;2022-09-02T00:37:54;3.83;;;1.80;;
56746;SDS011;42623;49.978;9.966;2022-09-02T00:38:05;3.85;;;1.75;;
56746;SDS011;42623;49.978;9.966;2022-09-02T00:38:15;3.58;;;1.60;;
56746;SDS011;42623;49.978;9.966;2022-09-02T00:38:26;3.37;;;1.63;;
56746;SDS011;42623;49.978;9.966;2022-09-02T00:38:36;4.50;;;1.70;;
56746;SDS011;42623;49.978;9.966;2022-09-02T00:38:48;4.90;;;1.95;;
56746;SDS011;42623;49.978;9.966;2022-09-02T00:38:58;4.67;;;1.80;;
56746;SDS011;42623;49.978;9.966;2022-09-02T00:39:09;3.47;;;1.73;;
56746;SDS011;42623;49.978;9.966;2022-09-02T00:39:19;3.20;;;1.70;;
56746;SDS011;42623;49.978;9.966;2022-09-02T00:39:29;3.40;;;1.80;;
56746;SDS011;42623;49.978;9.966;2022-09-02T00:39:39;3.47;;;1.80;;
56746;SDS011;42623;49.978;9.966;2022-09-02T00:39:50;3.60;;;1.73;;
56746;SDS011;42623;49.978;9.966;2022-09-02T00:40:02;3.53;;;1.67;;
56746;SDS011;42623;49.978;9.966;2022-09-02T00:40:13;4.33;;;1.80;;
56746;SDS011;42623;49.978;9.966;2022-09-02T00:40:23;4.70;;;2.08;;
56746;SDS011;42623;49.978;9.966;2022-09-02T00:40:34;4.40;;;2.10;;
56746;SDS011;42623;49.978;9.966;2022-09-02T00:40:46;3.90;;;2.00;;
56746;SDS011;42623;49.978;9.966;2022-09-02T00:40:56;3.88;;;1.88;;
56746;SDS011;42623;49.978;9.966;2022-09-02T00:41:07;4.03;;;1.90;;
56746;SDS011;42623;49.978;9.966;2022-09-02T00:41:19;4.00;;;2.10;;
56746;SDS011;42623;49.978;9.966;2022-09-02T00:41:29;4.55;;;2.13;;
56746;SDS011;42623;49.978;9.966;2022-09-02T00:41:41;4.85;;;2.17;;
56746;SDS011;42623;49.978;9.966;2022-09-02T00:41:51;4.13;;;1.90;;
56746;SDS011;42623;49.978;9.966;2022-09-02T00:42:02;3.87;;;2.10;;
56746;SDS011;42623;49.978;9.966;2022-09-02T00:42:12;3.70;;;2.00;;
56746;SDS011;42623;49.978;9.966;2022-09-02T00:42:23;3.93;;;2.07;;
56746;SDS011;42623;49.978;9.966;2022-09-02T00:42:34;4.15;;;2.03;;
56746;SDS011;42623;49.978;9.966;2022-09-02T00:42:44;4.37;;;2.13;;
56746;SDS011;42623;49.978;9.966;2022-09-02T00:42:55;4.63;;;2.30;;
56746;SDS011;42623;49.978;9.966;2022-09-02T00:43:06;4.25;;;2.10;;
56746;SDS011;42623;49.978;9.966;2022-09-02T00:43:51;4.00;;;1.92;;
56746;SDS011;42623;49.978;9.966;2022-09-02T00:44:04;3.90;;;1.92;;
56746;SDS011;42623;49.978;9.966;2022-09-02T00:44:15;3.38;;;1.73;;
56746;SDS011;42623;49.978;9.966;2022-09-02T00:44:26;3.40;;;1.67;;
56746;SDS011;42623;49.978;9.966;2022-09-02T00:44:36;3.80;;;1.70;;
56746;SDS011;42623;49.978;9.966;2022-09-02T00:44:46;4.18;;;1.83;;
56746;SDS011;42623;49.978;9.966;2022-09-02T00:44:57;3.93;;;1.90;;
56746;SDS011;42623;49.978;9.966;2022-09-02T00:45:07;4.07;;;1.93;;
56746;SDS011;42623;49.978;9.966;2022-09-02T00:45:19;3.53;;;1.80;;
56746;SDS011;42623;49.978;9.966;2022-09-02T00:45:29;3.45;;;1.60;;
56746;SDS011;42623;49.978;9.966;2022-09-02T00:45:40;3.87;;;1.70;;
56746;SDS011;42623;49.978;9.966;2022-09-02T00:45:50;3.88;;;1.83;;
56746;SDS011;42623;49.978;9.966;2022-09-02T00:46:02;4.10;;;2.05;;
56746;SDS011;42623;49.978;9.966;2022-09-02T00:46:13;3.63;;;1.83;;
56746;SDS011;42623;49.978;9.966;2022-09-02T00:46:24;3.18;;;1.68;;
56746;SDS011;42623;49.978;9.966;2022-09-02T00:46:35;3.97;;;1.80;;
56746;SDS011;42623;49.978;9.966;2022-09-02T00:46:45;4.30;;;1.90;;
56746;SDS011;42623;49.978;9.966;2022-09-02T00:46:56;4.47;;;1.90;;
56746;SDS011;42623;49.978;9.966;2022-09-02T00:47:06;3.40;;;1.73;;
56746;SDS011;42623;49.978;9.966;2022-09-02T00:47:17;3.22;;;1.63;;
56746;SDS011;42623;49.978;9.966;2022-09-02T00:47:27;3.55;;;1.73;;
56746;SDS011;42623;49.978;9.966;2022-09-02T00:47:40;3.67;;;1.70;;
56746;SDS011;42623;49.978;9.966;2022-09-02T00:47:50;3.40;;;1.60;;
56746;SDS011;42623;49.978;9.966;2022-09-02T00:48:00;3.25;;;1.60;;
56746;SDS011;42623;49.978;9.966;2022-09-02T00:48:11;3.93;;;1.90;;
56746;SDS011;42623;49.978;9.966;2022-09-02T00:48:21;3.90;;;1.97;;
56746;SDS011;42623;49.978;9.966;2022-09-02T00:48:31;3.97;;;2.10;;
56746;SDS011;42623;49.978;9.966;2022-09-02T00:49:04;3.55;;;1.98;;
56746;SDS011;42623;49.978;9.966;2022-09-02T00:49:20;4.07;;;2.05;;
56746;SDS011;42623;49.978;9.966;2022-09-02T00:49:34;4.00;;;2.00;;
56746;SDS011;42623;49.978;9.966;2022-09-02T00:49:48;5.00;;;2.13;;
56746;SDS011;42623;49.978;9.966;2022-09-02T00:49:59;5.07;;;2.03;;
56746;SDS011;42623;49.978;9.966;2022-09-02T00:50:10;4.77;;;1.97;;
56746;SDS011;42623;49.978;9.966;2022-09-02T00:50:25;3.96;;;1.90;;
56746;SDS011;42623;49.978;9.966;2022-09-02T00:50:37;4.00;;;1.83;;
56746;SDS011;42623;49.978;9.966;2022-09-02T00:50:47;3.60;;;1.70;;
56746;SDS011;42623;49.978;9.966;2022-09-02T00:50:58;3.33;;;1.65;;
56746;SDS011;42623;49.978;9.966;2022-09-02T00:51:08;3.67;;;1.90;;
56746;SDS011;42623;49.978;9.966;2022-09-02T00:51:19;3.80;;;1.88;;
56746;SDS011;42623;49.978;9.966;2022-09-02T00:51:32;4.00;;;1.93;;
56746;SDS011;42623;49.978;9.966;2022-09-02T00:52:33;3.65;;;1.90;;
56746;SDS011;42623;49.978;9.966;2022-09-02T00:52:47;4.30;;;2.13;;
56746;SDS011;42623;49.978;9.966;2022-09-02T00:52:59;4.63;;;2.17;;
56746;SDS011;42623;49.978;9.966;2022-09-02T00:53:11;4.18;;;2.03;;
56746;SDS011;42623;49.978;9.966;2022-09-02T00:53:22;3.92;;;2.00;;
56746;SDS011;42623;49.978;9.966;2022-09-02T00:53:34;4.28;;;2.20;;
56746;SDS011;42623;49.978;9.966;2022-09-02T00:53:47;4.30;;;2.17;;
56746;SDS011;42623;49.978;9.966;2022-09-02T00:53:57;4.20;;;2.08;;
56746;SDS011;42623;49.978;9.966;2022-09-02T00:54:08;4.10;;;2.00;;
56746;SDS011;42623;49.978;9.966;2022-09-02T00:54:19;3.75;;;1.90;;
56746;SDS011;42623;49.978;9.966;2022-09-02T00:54:33;3.38;;;1.83;;
56746;SDS011;42623;49.978;9.966;2022-09-02T00:55:18;3.97;;;2.00;;
56746;SDS011;42623;49.978;9.966;2022-09-02T00:55:26;4.10;;;1.88;;
56746;SDS011;42623;49.978;9.966;2022-09-02T00:55:29;4.72;;;2.15;;
56746;SDS011;42623;49.978;9.966;2022-09-02T00:55:42;5.03;;;2.17;;
56746;SDS011;42623;49.978;9.966;2022-09-02T00:55:53;4.50;;;2.10;;
56746;SDS011;42623;49.978;9.966;2022-09-02T00:56:04;4.27;;;2.10;;
56746;SDS011;42623;49.978;9.966;2022-09-02T00:56:19;3.85;;;1.95;;
56746;SDS011;42623;49.978;9.966;2022-09-02T00:56:30;4.75;;;2.03;;
56746;SDS011;42623;49.978;9.966;2022-09-02T00:56:42;4.75;;;2.00;;
56746;SDS011;42623;49.978;9.966;2022-09-02T00:56:53;4.35;;;1.98;;
56746;SDS011;42623;49.978;9.966;2022-09-02T00:57:07;4.03;;;2.00;;
56746;SDS011;42623;49.978;9.966;2022-09-02T00:57:19;4.57;;;2.10;;
56746;SDS011;42623;49.978;9.966;2022-09-02T00:57:32;4.50;;;2.05;;
56746;SDS011;42623;49.978;9.966;2022-09-02T00:57:53;4.53;;;2.05;;
56746;SDS011;42623;49.978;9.966;2022-09-02T00:58:13;4.40;;;2.00;;
56746;SDS011;42623;49.978;9.966;2022-09-02T00:58:25;4.15;;;1.95;;
56746;SDS011;42623;49.978;9.966;2022-09-02T00:58:36;4.38;;;2.00;;
56746;SDS011;42623;49.978;9.966;2022-09-02T00:58:46;4.47;;;2.10;;
56746;SDS011;42623;49.978;9.966;2022-09-02T00:58:57;4.15;;;2.22;;
56746;SDS011;42623;49.978;9.966;2022-09-02T00:59:08;4.28;;;2.10;;
56746;SDS011;42623;49.978;9.966;2022-09-02T01:00:04;4.10;;;1.97;;
56746;SDS011;42623;49.978;9.966;2022-09-02T01:00:12;3.78;;;1.80;;
56746;SDS011;42623;49.978;9.966;2022-09-02T01:00:30;3.55;;;1.85;;
56746;SDS011;42623;49.978;9.966;2022-09-02T01:00:43;3.84;;;1.88;;
56746;SDS011;42623;49.978;9.966;2022-09-02T01:00:55;4.28;;;2.15;;
56746;SDS011;42623;49.978;9.966;2022-09-02T01:01:06;4.43;;;2.28;;
56746;SDS011;42623;49.978;9.966;2022-09-02T01:01:19;4.47;;;2.28;;
56746;SDS011;42623;49.978;9.966;2022-09-02T01:01:31;4.18;;;2.02;;
56746;SDS011;42623;49.978;9.966;2022-09-02T01:01:41;3.93;;;1.80;;
56746;SDS011;42623;49.978;9.966;2022-09-02T01:01:51;3.80;;;1.80;;
56746;SDS011;42623;49.978;9.966;2022-09-02T01:02:02;4.07;;;1.97;;
56746;SDS011;42623;49.978;9.966;2022-09-02T01:02:12;5.57;;;2.13;;
56746;SDS011;42623;49.978;9.966;2022-09-02T01:02:22;5.68;;;2.15;;
56746;SDS011;42623;49.978;9.966;2022-09-02T01:02:34;5.10;;;1.90;;
56746;SDS011;42623;49.978;9.966;2022-09-02T01:02:54;3.03;;;1.63;;
56746;SDS011;42623;49.978;9.966;2022-09-02T01:03:07;3.97;;;2.08;;
56746;SDS011;42623;49.978;9.966;2022-09-02T01:03:18;4.20;;;2.05;;
56746;SDS011;42623;49.978;9.966;2022-09-02T01:03:29;4.53;;;1.95;;
56746;SDS011;42623;49.978;9.966;2022-09-02T01:03:40;4.13;;;1.80;;
56746;SDS011;42623;49.978;9.966;2022-09-02T01:03:51;3.78;;;1.65;;
56746;SDS011;42623;49.978;9.966;2022-09-02T01:04:01;3.87;;;1.60;;
56746;SDS011;42623;49.978;9.966;2022-09-02T01:04:11;4.07;;;1.73;;
56746;SDS011;42623;49.978;9.966;2022-09-02T01:04:21;4.85;;;1.80;;
56746;SDS011;42623;49.978;9.966;2022-09-02T01:04:32;6.00;;;1.70;;
56746;SDS011;42623;49.978;9.966;2022-09-02T01:04:42;7.17;;;1.83;;
56746;SDS011;42623;49.978;9.966;2022-09-02T01:04:55;6.93;;;2.08;;
56746;SDS011;42623;49.978;9.966;2022-09-02T01:05:08;5.15;;;2.15;;
56746;SDS011;42623;49.978;9.966;2022-09-02T01:05:20;5.35;;;2.22;;
56746;SDS011;42623;49.978;9.966;2022-09-02T01:05:33;4.80;;;2.03;;
56746;SDS011;42623;49.978;9.966;2022-09-02T01:05:44;4.22;;;1.98;;
56746;SDS011;42623;49.978;9.966;2022-09-02T01:05:55;4.10;;;1.80;;
56746;SDS011;42623;49.978;9.966;2022-09-02T01:06:06;4.60;;;1.90;;
56746;SDS011;42623;49.978;9.966;2022-09-02T01:06:18;4.35;;;1.80;;
56746;SDS011;42623;49.978;9.966;2022-09-02T01:06:29;4.38;;;1.98;;
56746;SDS011;42623;49.978;9.966;2022-09-02T01:06:41;5.18;;;2.05;;
56746;SDS011;42623;49.978;9.966;2022-09-02T01:06:52;5.30;;;2.10;;
56746;SDS011;42623;49.978;9.966;2022-09-02T01:07:02;5.30;;;1.93;;
56746;SDS011;42623;49.978;9.966;2022-09-02T01:07:13;4.03;;;1.80;;
56746;SDS011;42623;49.978;9.966;2022-09-02T01:07:26;3.90;;;1.78;;
56746;SDS011;42623;49.978;9.966;2022-09-02T01:07:38;4.10;;;2.03;;
56746;SDS011;42623;49.978;9.966;2022-09-02T01:07:49;4.96;;;2.20;;
56746;SDS011;42623;49.978;9.966;2022-09-02T01:08:00;4.82;;;2.15;;
56746;SDS011;42623;49.978;9.966;2022-09-02T01:08:11;4.43;;;1.97;;
56746;SDS011;42623;49.978;9.966;2022-09-02T01:08:26;4.05;;;2.00;;
56746;SDS011;42623;49.978;9.966;2022-09-02T01:08:36;4.72;;;2.05;;
56746;SDS011;42623;49.978;9.966;2022-09-02T01:08:48;4.47;;;2.05;;
56746;SDS011;42623;49.978;9.966;2022-09-02T01:09:04;3.95;;;1.90;;
56746;SDS011;42623;49.978;9.966;2022-09-02T01:09:17;4.35;;;1.95;;
56746;SDS011;42623;49.978;9.966;2022-09-02T01:09:27;4.75;;;2.00;;
56746;SDS011;42623;49.978;9.966;2022-09-02T01:09:38;5.00;;;2.10;;
56746;SDS011;42623;49.978;9.966;2022-09-02T01:09:49;3.97;;;2.00;;